createdAt,value
2019-03-26T00:02:08.494Z,74.92
2019-03-26T00:04:41.342Z,74.82
2019-03-26T00:07:14.490Z,75.07
2019-03-26T00:09:47.251Z,75.13
2019-03-26T00:12:20.136Z,75.39
2019-03-26T00:14:52.981Z,75.25
2019-03-26T00:17:25.788Z,75.25
2019-03-26T00:19:58.664Z,75.22
2019-03-26T00:22:31.783Z,75.38
2019-03-26T00:25:04.757Z,75.47
2019-03-26T00:27:37.551Z,75.25
2019-03-26T00:30:10.476Z,75.28
2019-03-26T00:32:43.224Z,75.27
2019-03-26T00:35:16.018Z,75.17
2019-03-26T00:37:49.115Z,75.13
2019-03-26T00:40:21.948Z,75.36
2019-03-26T00:42:54.828Z,75.32
2019-03-26T00:45:27.670Z,75.47
2019-03-26T00:48:00.733Z,75.42
2019-03-26T00:50:33.520Z,75.30
2019-03-26T00:53:06.398Z,75.19
2019-03-26T00:55:39.309Z,74.96
2019-03-26T00:58:12.073Z,75.14
2019-03-26T01:00:46.564Z,75.37
2019-03-26T01:03:19.290Z,75.25
2019-03-26T01:05:52.378Z,75.32
2019-03-26T01:08:25.156Z,75.19
2019-03-26T01:10:57.952Z,74.88
2019-03-26T01:13:31.175Z,74.61
2019-03-26T01:16:04.272Z,74.46
2019-03-26T01:18:37.140Z,74.29
2019-03-26T01:21:09.928Z,74.26
2019-03-26T01:23:42.658Z,74.22
2019-03-26T01:26:15.478Z,74.12
2019-03-26T01:28:48.234Z,74.14
2019-03-26T01:31:21.116Z,74.15
2019-03-26T01:33:53.978Z,74.12
2019-03-26T01:36:26.838Z,74.14
2019-03-26T01:38:59.748Z,74.06
2019-03-26T01:41:32.628Z,74.32
2019-03-26T01:44:05.469Z,74.63
2019-03-26T01:46:38.262Z,74.74
2019-03-26T01:49:11.274Z,74.79
2019-03-26T01:51:44.080Z,74.89
2019-03-26T01:54:16.898Z,75.10
2019-03-26T01:56:49.650Z,75.11
2019-03-26T01:59:22.424Z,75.13
2019-03-26T02:01:55.200Z,75.26
2019-03-26T02:04:28.019Z,75.57
2019-03-26T02:07:00.764Z,75.63
2019-03-26T02:09:33.706Z,75.50
2019-03-26T02:12:06.480Z,75.20
2019-03-26T02:14:39.264Z,75.02
2019-03-26T02:17:12.070Z,74.89
2019-03-26T02:19:44.950Z,74.74
2019-03-26T02:22:17.816Z,74.71
2019-03-26T02:24:50.562Z,74.56
2019-03-26T02:27:23.387Z,74.45
2019-03-26T02:29:56.142Z,74.58
2019-03-26T02:32:29.114Z,74.44
2019-03-26T02:35:17.165Z,74.23
2019-03-26T02:37:36.670Z,74.31
2019-03-26T02:40:10.035Z,74.43
2019-03-26T02:42:42.938Z,74.50
2019-03-26T02:45:15.698Z,74.60
2019-03-26T02:47:48.468Z,74.76
2019-03-26T02:50:21.282Z,74.79
2019-03-26T02:52:54.046Z,74.67
2019-03-26T02:55:26.809Z,74.60
2019-03-26T02:57:59.713Z,74.62
2019-03-26T03:00:32.484Z,74.84
2019-03-26T03:03:05.397Z,74.87
2019-03-26T03:05:38.256Z,74.87
2019-03-26T03:08:11.156Z,74.91
2019-03-26T03:10:43.970Z,74.82
2019-03-26T03:13:16.815Z,74.81
2019-03-26T03:15:49.598Z,74.90
2019-03-26T03:18:22.421Z,75.03
2019-03-26T03:20:55.260Z,74.83
2019-03-26T03:23:28.101Z,75.00
2019-03-26T03:26:01.034Z,75.36
2019-03-26T03:28:34.018Z,76.00
2019-03-26T03:31:06.809Z,76.02
2019-03-26T03:33:39.680Z,76.11
2019-03-26T03:36:12.502Z,76.30
2019-03-26T03:38:45.279Z,76.11
2019-03-26T03:41:18.106Z,75.87
2019-03-26T03:43:51.222Z,75.70
2019-03-26T03:46:24.238Z,75.76
2019-03-26T03:48:57.403Z,75.98
2019-03-26T03:51:31.573Z,76.10
2019-03-26T03:54:04.868Z,76.27
2019-03-26T03:56:39.238Z,76.59
2019-03-26T03:59:13.638Z,77.19
2019-03-26T04:01:46.418Z,77.77
2019-03-26T04:04:19.208Z,78.02
2019-03-26T04:06:51.961Z,77.93
2019-03-26T04:09:24.757Z,77.74
2019-03-26T04:11:58.778Z,77.63
2019-03-26T04:14:32.097Z,77.44
2019-03-26T04:17:04.945Z,77.40
2019-03-26T04:19:37.708Z,77.38
2019-03-26T04:22:11.149Z,77.41
2019-03-26T04:24:43.910Z,77.43
2019-03-26T04:27:16.690Z,77.60
2019-03-26T04:29:49.518Z,77.39
2019-03-26T04:32:22.300Z,77.52
2019-03-26T04:34:55.063Z,77.63
2019-03-26T04:37:28.030Z,77.22
2019-03-26T04:40:01.085Z,76.99
2019-03-26T04:42:33.888Z,76.76
2019-03-26T04:45:06.778Z,76.45
2019-03-26T04:47:39.552Z,76.25
2019-03-26T04:50:12.298Z,76.36
2019-03-26T04:52:45.110Z,76.33
2019-03-26T04:55:18.084Z,76.28
2019-03-26T04:57:51.182Z,76.34
2019-03-26T05:00:25.080Z,76.48
2019-03-26T05:02:57.926Z,76.60
2019-03-26T05:05:30.746Z,76.66
2019-03-26T05:08:03.551Z,76.37
2019-03-26T05:10:36.468Z,76.02
2019-03-26T05:13:09.364Z,75.94
2019-03-26T05:15:42.186Z,75.47
2019-03-26T05:18:15.188Z,75.34
2019-03-26T05:20:49.036Z,75.10
2019-03-26T05:23:22.120Z,75.08
2019-03-26T05:25:55.024Z,74.76
2019-03-26T05:28:27.793Z,74.47
2019-03-26T05:31:02.269Z,74.07
2019-03-26T05:33:35.256Z,73.46
2019-03-26T05:36:08.033Z,71.96
2019-03-26T05:38:41.178Z,68.62
2019-03-26T05:41:14.095Z,64.19
2019-03-26T05:43:46.881Z,60.30
2019-03-26T05:46:19.681Z,56.39
2019-03-26T05:48:52.566Z,51.44
2019-03-26T05:51:25.603Z,48.75
2019-03-26T05:53:58.506Z,43.98
2019-03-26T05:56:31.777Z,41.29
2019-03-26T05:59:04.660Z,37.86
2019-03-26T06:01:37.483Z,35.09
2019-03-26T06:04:10.339Z,36.18
2019-03-26T06:06:43.155Z,36.70
2019-03-26T06:09:17.070Z,38.92
2019-03-26T06:11:49.938Z,41.81
2019-03-26T06:14:22.786Z,39.93
2019-03-26T06:16:55.621Z,40.89
2019-03-26T06:19:28.473Z,43.68
2019-03-26T06:22:01.834Z,45.73
2019-03-26T06:24:35.596Z,47.37
2019-03-26T06:27:08.501Z,49.92
2019-03-26T06:29:41.253Z,52.39
2019-03-26T06:32:14.101Z,53.54
2019-03-26T06:34:46.956Z,53.61
2019-03-26T06:37:19.904Z,53.95
2019-03-26T06:39:52.726Z,54.21
2019-03-26T06:42:25.511Z,54.02
2019-03-26T06:44:58.267Z,54.12
2019-03-26T06:47:31.425Z,54.11
2019-03-26T06:50:04.262Z,54.41
2019-03-26T06:52:37.042Z,54.98
2019-03-26T06:55:10.566Z,55.18
2019-03-26T06:57:43.572Z,55.26
2019-03-26T07:00:20.394Z,55.72
2019-03-26T07:02:53.146Z,56.71
2019-03-26T07:05:25.994Z,57.39
2019-03-26T07:07:58.840Z,57.53
2019-03-26T07:10:32.200Z,57.30
2019-03-26T07:13:05.061Z,57.17
2019-03-26T07:15:37.963Z,57.06
2019-03-26T07:18:11.158Z,57.32
2019-03-26T07:20:43.953Z,57.44
2019-03-26T07:23:16.756Z,56.81
2019-03-26T07:25:49.657Z,56.04
2019-03-26T07:28:22.962Z,56.36
2019-03-26T07:30:57.092Z,55.89
2019-03-26T07:33:31.420Z,55.46
2019-03-26T07:36:04.326Z,56.26
2019-03-26T07:38:37.120Z,54.76
2019-03-26T07:41:09.978Z,54.02
2019-03-26T07:43:42.922Z,52.29
2019-03-26T07:46:15.881Z,49.48
2019-03-26T07:48:48.698Z,46.16
2019-03-26T07:51:21.586Z,45.56
2019-03-26T07:53:54.470Z,45.02
2019-03-26T07:56:27.380Z,39.98
2019-03-26T07:59:00.193Z,34.61
2019-03-26T08:01:33.259Z,35.12
2019-03-26T08:04:06.294Z,34.28
2019-03-26T08:06:39.202Z,33.58
2019-03-26T08:09:12.193Z,32.58
2019-03-26T08:11:45.078Z,32.96
2019-03-26T08:14:17.888Z,29.36
2019-03-26T08:16:51.187Z,23.28
2019-03-26T08:19:23.967Z,20.92
2019-03-26T08:22:00.568Z,18.97
2019-03-26T08:24:33.436Z,22.21
2019-03-26T08:27:06.260Z,24.73
2019-03-26T08:29:39.186Z,26.93
2019-03-26T08:32:12.115Z,29.78
2019-03-26T08:34:46.815Z,31.60
2019-03-26T08:37:19.978Z,32.09
2019-03-26T08:39:52.792Z,31.61
2019-03-26T08:42:25.788Z,33.07
2019-03-26T08:44:58.603Z,34.91
2019-03-26T08:47:31.582Z,36.44
2019-03-26T08:50:05.589Z,37.02
2019-03-26T08:52:38.516Z,37.51
2019-03-26T08:55:12.678Z,36.37
2019-03-26T08:57:45.862Z,36.11
2019-03-26T09:00:20.525Z,34.06
2019-03-26T09:02:53.470Z,33.18
2019-03-26T09:05:26.310Z,33.26
2019-03-26T09:07:59.336Z,34.23
2019-03-26T09:10:32.189Z,32.99
2019-03-26T09:13:05.046Z,31.97
2019-03-26T09:15:37.884Z,28.85
2019-03-26T09:18:10.685Z,29.70
2019-03-26T09:20:43.551Z,31.67
2019-03-26T09:23:16.379Z,33.71
2019-03-26T09:25:49.161Z,34.53
2019-03-26T09:28:22.143Z,34.22
2019-03-26T09:30:55.021Z,33.24
2019-03-26T09:33:28.143Z,25.90
2019-03-26T09:36:01.304Z,17.42
2019-03-26T09:38:39.164Z,14.64
2019-03-26T09:41:08.698Z,17.35
2019-03-26T09:43:41.548Z,20.85
2019-03-26T09:46:14.402Z,19.30
2019-03-26T09:48:47.236Z,15.39
2019-03-26T09:51:20.079Z,16.63
2019-03-26T09:53:52.991Z,15.54
2019-03-26T09:56:29.369Z,17.05
2019-03-26T09:59:00.401Z,17.30
2019-03-26T10:01:33.200Z,18.38
2019-03-26T10:04:06.057Z,19.86
2019-03-26T10:06:38.833Z,16.67
2019-03-26T10:09:12.004Z,12.39
2019-03-26T10:11:44.834Z,12.22
2019-03-26T10:14:17.651Z,10.35
2019-03-26T10:16:50.561Z,10.53
2019-03-26T10:19:23.417Z,11.11
2019-03-26T10:21:56.521Z,10.26
2019-03-26T10:24:29.372Z,12.20
2019-03-26T10:27:02.280Z,11.72
2019-03-26T10:29:35.249Z,12.93
2019-03-26T10:32:08.129Z,13.62
2019-03-26T10:34:41.486Z,13.21
2019-03-26T10:37:14.304Z,12.54
2019-03-26T10:39:47.187Z,13.82
2019-03-26T10:42:20.109Z,16.25
2019-03-26T10:44:53.084Z,19.08
2019-03-26T10:47:25.943Z,19.99
2019-03-26T10:49:59.969Z,19.80
2019-03-26T10:52:34.376Z,20.81
2019-03-26T10:55:07.781Z,21.26
2019-03-26T10:57:41.136Z,22.55
2019-03-26T11:00:14.367Z,22.14
2019-03-26T11:02:47.348Z,18.60
2019-03-26T11:05:20.335Z,20.31
2019-03-26T11:07:53.489Z,22.31
2019-03-26T11:10:26.332Z,23.66
2019-03-26T11:12:59.233Z,23.96
2019-03-26T11:15:33.686Z,20.84
2019-03-26T11:18:06.960Z,19.93
2019-03-26T11:20:41.779Z,19.38
2019-03-26T11:23:14.867Z,19.62
2019-03-26T11:25:47.821Z,20.18
2019-03-26T11:28:20.991Z,18.71
2019-03-26T11:30:53.893Z,19.53
2019-03-26T11:33:26.719Z,20.26
2019-03-26T11:36:00.617Z,21.64
2019-03-26T11:38:33.556Z,22.34
2019-03-26T11:41:06.543Z,21.80
2019-03-26T11:43:39.677Z,20.28
2019-03-26T11:46:12.600Z,19.24
2019-03-26T11:48:45.393Z,20.47
2019-03-26T11:51:18.323Z,22.45
2019-03-26T11:53:51.621Z,24.27
2019-03-26T11:56:24.399Z,25.12
2019-03-26T11:58:57.326Z,25.02
2019-03-26T12:01:31.318Z,25.11
2019-03-26T12:04:04.287Z,25.18
2019-03-26T12:06:37.225Z,24.93
2019-03-26T12:09:11.903Z,25.76
2019-03-26T12:11:46.276Z,26.63
2019-03-26T12:14:19.121Z,27.56
2019-03-26T12:16:52.055Z,28.22
2019-03-26T12:19:25.023Z,27.78
2019-03-26T12:21:57.871Z,27.96
2019-03-26T12:24:31.148Z,28.86
2019-03-26T12:27:04.023Z,28.33
2019-03-26T12:29:36.859Z,27.30
2019-03-26T12:32:09.688Z,27.25
2019-03-26T12:34:42.548Z,27.65
2019-03-26T12:37:15.329Z,27.71
2019-03-26T12:39:58.944Z,28.21
2019-03-26T12:42:23.838Z,29.16
2019-03-26T12:44:56.665Z,29.96
2019-03-26T12:47:29.533Z,30.71
2019-03-26T12:50:02.323Z,30.83
2019-03-26T12:52:35.133Z,30.25
2019-03-26T12:55:08.178Z,29.84
2019-03-26T12:57:40.964Z,30.00
2019-03-26T13:00:13.942Z,30.36
2019-03-26T13:02:46.787Z,30.80
2019-03-26T13:05:19.594Z,31.37
2019-03-26T13:07:52.375Z,32.01
2019-03-26T13:10:25.241Z,31.74
2019-03-26T13:12:58.229Z,31.42
2019-03-26T13:15:33.010Z,31.06
2019-03-26T13:18:07.498Z,30.58
2019-03-26T13:20:40.405Z,30.70
2019-03-26T13:23:13.270Z,30.99
2019-03-26T13:25:46.371Z,31.08
2019-03-26T13:28:19.308Z,30.98
2019-03-26T13:30:52.173Z,30.94
2019-03-26T13:33:25.279Z,30.92
2019-03-26T13:35:58.144Z,30.71
2019-03-26T13:38:31.852Z,30.72
2019-03-26T13:41:04.853Z,31.40
2019-03-26T13:43:37.635Z,31.61
2019-03-26T13:46:11.312Z,31.26
2019-03-26T13:48:44.378Z,31.00
2019-03-26T13:51:17.295Z,30.72
2019-03-26T13:53:50.104Z,30.34
2019-03-26T13:56:23.023Z,30.00
2019-03-26T13:58:58.055Z,30.21
2019-03-26T14:01:31.244Z,31.06
2019-03-26T14:04:04.157Z,31.66
2019-03-26T14:06:36.958Z,31.98
2019-03-26T14:09:10.760Z,33.14
2019-03-26T14:11:44.786Z,33.53
2019-03-26T14:14:19.292Z,33.67
2019-03-26T14:16:52.107Z,34.30
2019-03-26T14:19:25.077Z,35.29
2019-03-26T14:22:19.849Z,36.29
2019-03-26T14:24:52.796Z,36.72
2019-03-26T14:27:27.366Z,38.20
2019-03-26T14:30:00.806Z,39.03
2019-03-26T14:32:34.662Z,38.93
2019-03-26T14:35:07.914Z,38.93
2019-03-26T14:37:51.277Z,38.71
2019-03-26T14:40:16.498Z,38.99
2019-03-26T14:42:51.198Z,39.15
2019-03-26T14:45:24.114Z,38.74
2019-03-26T14:47:56.927Z,39.06
2019-03-26T14:50:29.820Z,39.45
2019-03-26T14:53:02.790Z,39.12
2019-03-26T14:55:35.746Z,39.46
2019-03-26T14:58:08.543Z,39.46
2019-03-26T15:00:41.757Z,39.63
2019-03-26T15:03:14.551Z,39.35
2019-03-26T15:05:47.363Z,39.86
2019-03-26T15:08:20.379Z,40.71
2019-03-26T15:10:53.208Z,40.51
2019-03-26T15:13:26.142Z,41.37
2019-03-26T15:15:58.938Z,41.22
2019-03-26T15:18:32.156Z,40.83
2019-03-26T15:21:04.969Z,40.72
2019-03-26T15:23:37.909Z,40.69
2019-03-26T15:26:10.793Z,40.47
2019-03-26T15:28:43.552Z,39.50
2019-03-26T15:31:16.436Z,39.33
2019-03-26T15:33:49.332Z,39.44
2019-03-26T15:36:22.231Z,39.33
2019-03-26T15:38:55.066Z,39.18
2019-03-26T15:41:30.361Z,38.34
2019-03-26T15:44:02.412Z,37.92
2019-03-26T15:46:36.558Z,37.33
2019-03-26T15:49:09.755Z,37.01
2019-03-26T15:51:42.669Z,36.75
2019-03-26T15:54:15.552Z,36.47
2019-03-26T15:56:48.337Z,36.54
2019-03-26T15:59:23.032Z,36.08
2019-03-26T16:01:55.845Z,36.17
2019-03-26T16:04:28.662Z,36.02
2019-03-26T16:07:01.829Z,36.11
2019-03-26T16:09:34.657Z,36.11
2019-03-26T16:12:07.440Z,36.33
2019-03-26T16:14:40.191Z,36.51
2019-03-26T16:17:12.991Z,36.58
2019-03-26T16:19:45.753Z,36.63
2019-03-26T16:22:18.595Z,37.13
2019-03-26T16:24:53.442Z,37.85
2019-03-26T16:27:26.374Z,38.37
2019-03-26T16:29:59.291Z,38.91
2019-03-26T16:32:32.084Z,38.75
2019-03-26T16:35:04.893Z,38.87
2019-03-26T16:37:37.707Z,39.28
2019-03-26T16:40:11.095Z,39.30
2019-03-26T16:42:43.908Z,39.50
2019-03-26T16:45:16.802Z,39.50
2019-03-26T16:47:49.563Z,39.53
2019-03-26T16:50:22.323Z,39.57
2019-03-26T16:52:55.276Z,39.48
2019-03-26T16:55:28.057Z,39.83
2019-03-26T16:58:01.197Z,40.27
2019-03-26T17:00:35.601Z,40.81
2019-03-26T17:03:08.367Z,41.22
2019-03-26T17:05:41.462Z,41.63
2019-03-26T17:08:14.293Z,42.17
2019-03-26T17:10:48.587Z,42.55
2019-03-26T17:13:21.688Z,42.69
2019-03-26T17:15:54.627Z,43.14
2019-03-26T17:18:27.377Z,43.66
2019-03-26T17:21:00.843Z,43.84
2019-03-26T17:23:33.703Z,44.00
2019-03-26T17:26:06.536Z,43.94
2019-03-26T17:28:39.356Z,43.80
2019-03-26T17:31:12.127Z,43.79
2019-03-26T17:33:44.913Z,43.72
2019-03-26T17:36:17.974Z,43.48
2019-03-26T17:38:50.947Z,43.04
2019-03-26T17:41:23.918Z,42.80
2019-03-26T17:43:56.693Z,42.85
2019-03-26T17:46:29.552Z,42.63
2019-03-26T17:49:02.474Z,42.75
2019-03-26T17:51:35.467Z,42.68
2019-03-26T17:54:08.305Z,42.92
2019-03-26T17:56:41.119Z,43.43
2019-03-26T17:59:13.941Z,43.58
2019-03-26T18:01:47.160Z,43.90
2019-03-26T18:04:20.141Z,44.02
2019-03-26T18:06:52.919Z,44.20
2019-03-26T18:09:25.659Z,44.41
2019-03-26T18:11:58.667Z,44.13
2019-03-26T18:14:31.978Z,44.38
2019-03-26T18:17:04.788Z,44.55
2019-03-26T18:19:37.723Z,44.56
2019-03-26T18:22:11.132Z,44.62
2019-03-26T18:24:43.932Z,44.96
2019-03-26T18:27:16.702Z,45.06
2019-03-26T18:29:49.541Z,45.15
2019-03-26T18:32:22.490Z,45.43
2019-03-26T18:34:55.364Z,45.70
2019-03-26T18:37:28.201Z,46.11
2019-03-26T18:40:01.547Z,46.50
2019-03-26T18:42:43.896Z,47.04
2019-03-26T18:45:09.255Z,47.17
2019-03-26T18:47:42.143Z,47.28
2019-03-26T18:50:16.092Z,47.31
2019-03-26T18:52:49.016Z,47.64
2019-03-26T18:55:25.044Z,47.75
2019-03-26T18:57:56.594Z,47.46
2019-03-26T19:00:40.327Z,47.64
2019-03-26T19:03:13.210Z,47.80
2019-03-26T19:05:46.303Z,48.68
2019-03-26T19:08:19.438Z,50.68
2019-03-26T19:10:52.438Z,55.43
2019-03-26T19:13:25.328Z,59.20
2019-03-26T19:15:58.262Z,63.27
2019-03-26T19:18:31.597Z,66.88
2019-03-26T19:21:04.447Z,67.79
2019-03-26T19:23:37.427Z,68.78
2019-03-26T19:26:10.407Z,69.73
2019-03-26T19:28:43.224Z,70.07
2019-03-26T19:31:16.187Z,71.19
2019-03-26T19:33:49.079Z,71.19
2019-03-26T19:36:22.046Z,71.58
2019-03-26T19:38:54.876Z,71.57
2019-03-26T19:41:27.710Z,71.60
2019-03-26T19:44:00.895Z,71.54
2019-03-26T19:46:33.870Z,71.39
2019-03-26T19:49:06.676Z,71.46
2019-03-26T19:51:39.579Z,71.73
2019-03-26T19:54:12.352Z,72.03
2019-03-26T19:56:45.193Z,72.72
2019-03-26T19:59:18.109Z,72.93
2019-03-26T20:01:52.888Z,73.07
2019-03-26T20:04:26.035Z,73.31
2019-03-26T20:06:59.106Z,73.43
2019-03-26T20:09:32.072Z,73.27
2019-03-26T20:12:05.145Z,73.08
2019-03-26T20:14:38.132Z,72.83
2019-03-26T20:17:11.013Z,72.78
2019-03-26T20:19:44.018Z,72.50
2019-03-26T20:22:17.006Z,72.51
2019-03-26T20:24:49.890Z,72.78
2019-03-26T20:27:22.789Z,73.10
2019-03-26T20:29:55.622Z,73.33
2019-03-26T20:32:28.512Z,73.21
2019-03-26T20:35:01.323Z,74.07
2019-03-26T20:37:34.310Z,74.13
2019-03-26T20:40:08.990Z,73.86
2019-03-26T20:42:41.992Z,74.19
2019-03-26T20:45:15.023Z,74.09
2019-03-26T20:47:47.933Z,74.26
2019-03-26T20:50:20.880Z,74.27
2019-03-26T20:52:53.731Z,73.94
2019-03-26T20:55:36.855Z,73.66
2019-03-26T20:58:09.845Z,73.45
2019-03-26T21:00:44.066Z,73.11
2019-03-26T21:03:17.115Z,73.26
2019-03-26T21:05:50.032Z,73.68
2019-03-26T21:08:22.854Z,73.68
2019-03-26T21:10:55.620Z,73.61
2019-03-26T21:13:28.600Z,73.54
2019-03-26T21:16:01.494Z,73.99
2019-03-26T21:18:34.318Z,73.77
2019-03-26T21:21:07.241Z,74.13
2019-03-26T21:23:40.102Z,74.55
2019-03-26T21:26:13.104Z,74.70
2019-03-26T21:28:48.192Z,74.70
2019-03-26T21:31:21.407Z,74.59
2019-03-26T21:33:54.291Z,74.45
2019-03-26T21:36:27.187Z,74.47
2019-03-26T21:39:00.096Z,74.45
2019-03-26T21:41:32.848Z,74.19
2019-03-26T21:44:05.865Z,74.09
2019-03-26T21:46:38.654Z,74.27
2019-03-26T21:49:11.457Z,72.04
2019-03-26T21:51:44.250Z,68.45
2019-03-26T21:54:16.996Z,66.90
2019-03-26T21:56:49.879Z,67.01
2019-03-26T21:59:22.734Z,66.82
2019-03-26T22:01:55.628Z,66.73
2019-03-26T22:04:28.600Z,65.63
2019-03-26T22:07:01.664Z,64.86
2019-03-26T22:09:34.524Z,64.32
2019-03-26T22:12:07.288Z,64.52
2019-03-26T22:14:40.161Z,64.60
2019-03-26T22:17:13.108Z,64.53
2019-03-26T22:19:46.085Z,64.49
2019-03-26T22:22:19.014Z,64.88
2019-03-26T22:24:52.029Z,65.55
2019-03-26T22:27:24.830Z,65.98
2019-03-26T22:29:57.731Z,66.21
2019-03-26T22:32:30.595Z,66.37
2019-03-26T22:35:03.500Z,66.67
2019-03-26T22:37:36.496Z,66.95
2019-03-26T22:40:10.890Z,67.08
2019-03-26T22:42:43.820Z,67.50
2019-03-26T22:45:17.321Z,67.61
2019-03-26T22:47:50.076Z,67.88
2019-03-26T22:50:23.236Z,67.89
2019-03-26T22:52:56.175Z,68.18
2019-03-26T22:55:28.982Z,68.56
2019-03-26T22:58:02.053Z,68.59
2019-03-26T23:00:36.691Z,68.80
2019-03-26T23:03:09.786Z,68.81
2019-03-26T23:05:42.596Z,68.66
2019-03-26T23:08:15.363Z,67.53
2019-03-26T23:10:48.149Z,67.30
2019-03-26T23:13:20.927Z,67.52
2019-03-26T23:15:53.912Z,67.64
2019-03-26T23:18:26.762Z,67.64
2019-03-26T23:20:59.668Z,68.07
2019-03-26T23:23:32.663Z,68.39
2019-03-26T23:26:06.630Z,68.92
2019-03-26T23:28:39.547Z,68.93
2019-03-26T23:31:12.452Z,69.23
2019-03-26T23:33:45.243Z,69.17
2019-03-26T23:36:17.970Z,69.22
2019-03-26T23:38:51.410Z,69.22
2019-03-26T23:41:24.299Z,69.34
2019-03-26T23:43:57.108Z,69.54
2019-03-26T23:46:29.846Z,69.70
2019-03-26T23:49:02.706Z,69.95
2019-03-26T23:51:35.557Z,70.15
2019-03-26T23:54:08.444Z,70.18
2019-03-26T23:56:41.751Z,70.24
2019-03-26T23:59:14.514Z,70.43
